Time;durP1;ratioP1;P1;durP2;ratioP2;P2;SDS_P1;SDS_P2;PMS_P1;PMS_P2;Temp;Humidity;BMP_temperature;BMP_pressure;BME280_temperature;BME280_humidity;BME280_pressure;Samples;Min_cycle;Max_cycle;Signal;HPM_P1;HPM_P2
2022/05/02 00:01:46;;;;;;;7.30;3.33;;;;;;;;;;4977607;28;20129;-43
2022/05/02 00:04:12;;;;;;;7.90;3.38;;;;;;;;;;4978436;28;20506;-43
2022/05/02 00:06:39;;;;;;;4.72;3.17;;;;;;;;;;4977996;28;20057;-57
2022/05/02 00:09:12;;;;;;;6.93;3.30;;;;;;;;;;4977286;28;20061;-52
2022/05/02 00:11:38;;;;;;;4.57;2.90;;;;;;;;;;4978061;28;20051;-52
2022/05/02 00:14:04;;;;;;;4.80;2.97;;;;;;;;;;4977257;28;20138;-53
2022/05/02 00:16:39;;;;;;;6.07;3.00;;;;;;;;;;4977816;28;20181;-54
2022/05/02 00:19:05;;;;;;;10.55;3.30;;;;;;;;;;4976644;28;20072;-53
2022/05/02 00:21:31;;;;;;;7.57;3.28;;;;;;;;;;4979936;28;20464;-55
2022/05/02 00:24:05;;;;;;;6.50;3.70;;;;;;;;;;4977826;28;20556;-45
2022/05/02 00:26:31;;;;;;;5.20;3.15;;;;;;;;;;4978654;28;20587;-46
2022/05/02 00:28:57;;;;;;;6.57;3.80;;;;;;;;;;4977343;28;20466;-45
2022/05/02 00:31:31;;;;;;;5.43;3.50;;;;;;;;;;4975536;28;20146;-44
2022/05/02 00:33:57;;;;;;;5.22;3.50;;;;;;;;;;4978331;28;20557;-45
2022/05/02 00:36:24;;;;;;;6.53;3.78;;;;;;;;;;4973511;28;20150;-45
2022/05/02 00:38:58;;;;;;;13.95;3.97;;;;;;;;;;4979482;28;20486;-44
2022/05/02 00:41:31;;;;;;;7.93;3.97;;;;;;;;;;4975214;28;20145;-46
2022/05/02 00:44:05;;;;;;;10.00;4.05;;;;;;;;;;4979351;28;20051;-49
2022/05/02 00:46:32;;;;;;;5.90;4.07;;;;;;;;;;4979725;28;20082;-45
2022/05/02 00:48:58;;;;;;;8.68;4.25;;;;;;;;;;4976408;28;20050;-44
2022/05/02 00:51:32;;;;;;;12.27;6.00;;;;;;;;;;4979186;28;20065;-44
2022/05/02 00:53:58;;;;;;;7.88;5.00;;;;;;;;;;4977204;28;20133;-43
2022/05/02 00:56:24;;;;;;;14.90;6.18;;;;;;;;;;4977208;28;20138;-44
2022/05/02 00:58:58;;;;;;;11.27;5.40;;;;;;;;;;4974524;28;20487;-46
2022/05/02 01:01:24;;;;;;;11.05;6.60;;;;;;;;;;4978015;28;20150;-43
2022/05/02 01:03:51;;;;;;;8.85;6.03;;;;;;;;;;4979302;28;20133;-44
2022/05/02 01:09:09;;;;;;;16.35;7.53;;;;;;;;;;4977049;28;20134;-43
2022/05/02 01:11:43;;;;;;;11.32;6.57;;;;;;;;;;4977743;28;20129;-45
2022/05/02 01:14:09;;;;;;;15.15;6.47;;;;;;;;;;4976696;28;20077;-43
2022/05/02 01:16:35;;;;;;;11.02;6.70;;;;;;;;;;4977764;28;20161;-46
2022/05/02 01:19:09;;;;;;;16.85;7.57;;;;;;;;;;4976122;28;20046;-57
2022/05/02 01:21:36;;;;;;;19.90;8.73;;;;;;;;;;4977576;28;20082;-46
2022/05/02 01:24:03;;;;;;;16.95;8.70;;;;;;;;;;4980912;28;20106;-54
2022/05/02 01:26:36;;;;;;;17.33;8.25;;;;;;;;;;4980193;28;20149;-51
2022/05/02 01:29:03;;;;;;;18.33;10.27;;;;;;;;;;4962635;28;20480;-49
2022/05/02 01:31:29;;;;;;;23.20;10.10;;;;;;;;;;4979199;28;20101;-49
2022/05/02 01:34:03;;;;;;;21.45;10.77;;;;;;;;;;4980177;28;20474;-52
2022/05/02 01:36:29;;;;;;;27.83;10.73;;;;;;;;;;4981338;28;20138;-49
2022/05/02 01:38:55;;;;;;;22.95;11.30;;;;;;;;;;4982221;28;20125;-47
2022/05/02 01:41:42;;;;;;;18.75;10.07;;;;;;;;;;4978373;28;20146;-46
2022/05/02 01:44:15;;;;;;;27.05;12.27;;;;;;;;;;4979795;28;20154;-46
2022/05/02 01:46:49;;;;;;;26.48;12.65;;;;;;;;;;4980228;28;20580;-45
2022/05/02 01:49:15;;;;;;;30.10;14.23;;;;;;;;;;4979093;28;20227;-50
2022/05/02 01:51:41;;;;;;;23.52;10.73;;;;;;;;;;4979603;28;20081;-51
2022/05/02 01:54:19;;;;;;;23.67;10.48;;;;;;;;;;4978324;28;20058;-46
2022/05/02 01:56:46;;;;;;;30.42;13.00;;;;;;;;;;4980321;28;20547;-46
2022/05/02 01:59:18;;;;;;;37.22;14.68;;;;;;;;;;4979048;28;20057;-50
2022/05/02 02:01:58;;;;;;;38.00;16.67;;;;;;;;;;4980505;28;21090;-47
2022/05/02 02:07:17;;;;;;;49.42;20.45;;;;;;;;;;4980166;28;20117;-46
2022/05/02 02:09:43;;;;;;;43.33;18.33;;;;;;;;;;4983109;28;20133;-48
2022/05/02 02:12:10;;;;;;;50.00;17.73;;;;;;;;;;4980467;28;20088;-53
2022/05/02 02:14:44;;;;;;;42.72;18.50;;;;;;;;;;4979248;28;20082;-50
2022/05/02 02:17:11;;;;;;;54.25;19.48;;;;;;;;;;4978968;28;20482;-51
2022/05/02 02:19:37;;;;;;;49.33;20.42;;;;;;;;;;4981020;28;20141;-54
2022/05/02 02:22:16;;;;;;;51.70;21.83;;;;;;;;;;4982209;28;20573;-49
2022/05/02 02:24:46;;;;;;;54.20;22.40;;;;;;;;;;4980230;28;20145;-51
2022/05/02 02:27:20;;;;;;;66.05;22.50;;;;;;;;;;4980735;28;20601;-53
2022/05/02 02:29:46;;;;;;;60.20;21.25;;;;;;;;;;4980013;28;20133;-48
2022/05/02 02:32:12;;;;;;;73.47;23.30;;;;;;;;;;4981976;28;20480;-47
2022/05/02 02:34:46;;;;;;;73.45;25.58;;;;;;;;;;4981895;28;20430;-55
2022/05/02 02:37:13;;;;;;;62.08;23.55;;;;;;;;;;4978805;28;20081;-49
2022/05/02 02:39:39;;;;;;;79.95;24.95;;;;;;;;;;4981022;28;20105;-47
2022/05/02 02:42:19;;;;;;;79.78;25.70;;;;;;;;;;4977957;28;20171;-44
2022/05/02 02:44:45;;;;;;;77.72;26.35;;;;;;;;;;4981948;28;20142;-50
2022/05/02 02:47:13;;;;;;;85.65;27.58;;;;;;;;;;4976977;28;20434;-47
2022/05/02 02:49:46;;;;;;;84.35;28.02;;;;;;;;;;4976978;28;20478;-48
2022/05/02 02:52:12;;;;;;;86.95;29.23;;;;;;;;;;4978637;28;20208;-51
2022/05/02 02:54:38;;;;;;;86.13;28.63;;;;;;;;;;4978904;28;20146;-52
2022/05/02 02:57:12;;;;;;;89.20;30.15;;;;;;;;;;4981159;28;20051;-55
2022/05/02 02:59:39;;;;;;;92.05;31.85;;;;;;;;;;4980980;28;20597;-49
2022/05/02 03:02:06;;;;;;;87.93;29.48;;;;;;;;;;4979119;28;20145;-54
2022/05/02 03:07:27;;;;;;;72.45;25.85;;;;;;;;;;4980203;28;20557;-50
2022/05/02 03:10:01;;;;;;;64.82;24.00;;;;;;;;;;4980287;28;20125;-49
2022/05/02 03:12:27;;;;;;;70.50;25.33;;;;;;;;;;4980408;28;20173;-52
2022/05/02 03:14:53;;;;;;;66.10;24.42;;;;;;;;;;4976020;28;20207;-48
2022/05/02 03:17:26;;;;;;;79.15;26.38;;;;;;;;;;4981435;28;20070;-49
2022/05/02 03:19:53;;;;;;;66.80;25.38;;;;;;;;;;4978911;28;20085;-53
2022/05/02 03:22:19;;;;;;;79.20;26.25;;;;;;;;;;4978641;28;20074;-53
2022/05/02 03:24:53;;;;;;;63.17;24.85;;;;;;;;;;4980222;28;20157;-48
2022/05/02 03:27:19;;;;;;;64.72;24.08;;;;;;;;;;4977315;28;20506;-55
2022/05/02 03:29:45;;;;;;;75.65;23.73;;;;;;;;;;4979440;28;20054;-48
2022/05/02 03:32:19;;;;;;;65.78;23.83;;;;;;;;;;4978570;28;20057;-44
2022/05/02 03:34:45;;;;;;;65.50;23.00;;;;;;;;;;4979065;28;20141;-46
2022/05/02 03:37:12;;;;;;;66.03;22.55;;;;;;;;;;4979290;28;20512;-45
2022/05/02 03:39:46;;;;;;;67.35;23.02;;;;;;;;;;4975029;28;20585;-47
2022/05/02 03:42:19;;;;;;;54.47;21.13;;;;;;;;;;4976142;28;20147;-44
2022/05/02 03:44:53;;;;;;;59.35;21.92;;;;;;;;;;4977264;28;20140;-46
2022/05/02 03:47:19;;;;;;;47.53;20.10;;;;;;;;;;4978467;28;20223;-51
2022/05/02 03:49:46;;;;;;;51.72;18.65;;;;;;;;;;4977918;28;20862;-44
2022/05/02 03:52:19;;;;;;;41.75;18.40;;;;;;;;;;4980596;28;20146;-50
2022/05/02 03:54:45;;;;;;;50.67;19.70;;;;;;;;;;4982041;28;20139;-43
2022/05/02 03:57:12;;;;;;;56.47;21.95;;;;;;;;;;4979358;28;20057;-47
2022/05/02 03:59:46;;;;;;;47.50;21.05;;;;;;;;;;4979558;28;20133;-46
2022/05/02 04:02:13;;;;;;;52.22;22.17;;;;;;;;;;4977836;28;20130;-46
2022/05/02 04:04:40;;;;;;;57.67;21.50;;;;;;;;;;4978474;28;20050;-45
2022/05/02 04:07:13;;;;;;;51.95;21.27;;;;;;;;;;4975386;28;20329;-54
2022/05/02 04:09:39;;;;;;;44.65;20.55;;;;;;;;;;4976752;28;20053;-56
2022/05/02 04:12:06;;;;;;;46.00;19.58;;;;;;;;;;4978908;28;20145;-56
2022/05/02 04:14:38;;;;;;;42.03;17.83;;;;;;;;;;4979374;28;20494;-55
2022/05/02 04:17:05;;;;;;;49.97;19.23;;;;;;;;;;4980315;28;20145;-56
2022/05/02 04:19:31;;;;;;;42.65;18.23;;;;;;;;;;4978499;28;20133;-56
2022/05/02 07:16:14;;;;;;;4.28;0.90;;;;;;;;;;5777753;23;8520036;-49
2022/05/02 07:19:00;;;;;;;3.53;1.00;;;;;;;;;;6064265;23;20574;-44
2022/05/02 07:21:36;;;;;;;4.28;1.10;;;;;;;;;;6063766;23;20055;-46
2022/05/02 07:24:11;;;;;;;1.88;1.10;;;;;;;;;;6062943;23;20026;-48
2022/05/02 07:26:38;;;;;;;2.20;1.08;;;;;;;;;;6064477;23;20022;-56
2022/05/02 07:29:05;;;;;;;6.78;1.20;;;;;;;;;;6063538;23;20058;-47
2022/05/02 07:31:38;;;;;;;2.67;1.15;;;;;;;;;;6063694;23;20070;-56
2022/05/02 07:34:06;;;;;;;4.18;1.10;;;;;;;;;;6063566;23;20054;-53
2022/05/02 07:36:35;;;;;;;6.20;1.67;;;;;;;;;;6064568;23;20030;-57
2022/05/02 07:39:13;;;;;;;3.40;1.13;;;;;;;;;;6063800;23;20606;-57
2022/05/02 07:41:40;;;;;;;5.72;1.40;;;;;;;;;;6063242;23;20065;-57
2022/05/02 07:44:08;;;;;;;2.70;1.05;;;;;;;;;;6063046;23;20074;-57
2022/05/02 07:46:42;;;;;;;4.07;1.35;;;;;;;;;;6063377;23;20110;-58
2022/05/02 07:49:09;;;;;;;;;;;;;;;;;;6064306;23;20026;-50
2022/05/02 07:51:43;;;;;;;8.20;1.65;;;;;;;;;;6063401;23;19921;-47
2022/05/02 07:54:23;;;;;;;5.47;1.27;;;;;;;;;;6064482;23;20022;-53
2022/05/02 07:56:54;;;;;;;;;;;;;;;;;;6064630;23;20096;-47
2022/05/02 07:59:33;;;;;;;5.75;1.50;;;;;;;;;;6063378;23;19949;-47
2022/05/02 08:01:59;;;;;;;4.20;1.30;;;;;;;;;;6063287;23;20420;-49
2022/05/02 08:04:26;;;;;;;6.68;1.27;;;;;;;;;;6063276;23;20074;-55
2022/05/02 08:07:02;;;;;;;7.40;1.60;;;;;;;;;;6063715;23;20053;-52
2022/05/02 08:09:47;;;;;;;13.63;1.80;;;;;;;;;;6064229;23;20050;-55
2022/05/02 08:12:36;;;;;;;5.53;1.77;;;;;;;;;;6064017;23;20480;-56
2022/05/02 08:15:06;;;;;;;12.07;2.00;;;;;;;;;;6063474;23;20058;-55
2022/05/02 08:17:52;;;;;;;13.95;2.30;;;;;;;;;;6064735;23;20058;-56
2022/05/02 08:20:36;;;;;;;6.68;1.75;;;;;;;;;;6063375;23;20050;-55
2022/05/02 08:29:34;;;;;;;10.10;2.30;;;;;;;;;;6062960;23;20062;-55
2022/05/02 08:32:16;;;;;;;11.20;2.05;;;;;;;;;;6063353;23;20114;-53
2022/05/02 08:34:49;;;;;;;;;;;;;;;;;;6064182;23;20050;-52
2022/05/02 08:37:34;;;;;;;10.48;2.15;;;;;;;;;;6062915;23;19926;-53
2022/05/02 08:40:19;;;;;;;7.22;2.00;;;;;;;;;;6063370;23;20090;-49
2022/05/02 08:42:46;;;;;;;11.38;2.10;;;;;;;;;;6063908;23;20022;-44
2022/05/02 08:45:54;;;;;;;12.60;2.22;;;;;;;;;;6062505;23;20025;-53
2022/05/02 08:48:40;;;;;;;9.23;2.08;;;;;;;;;;6036909;23;20027;-46
2022/05/02 08:51:13;;;;;;;11.90;2.47;;;;;;;;;;6062146;23;20058;-48
2022/05/02 08:54:01;;;;;;;18.75;2.63;;;;;;;;;;6063853;23;20365;-53
2022/05/02 08:56:52;;;;;;;10.75;2.22;;;;;;;;;;5998932;23;20093;-49
2022/05/02 08:59:30;;;;;;;12.00;2.58;;;;;;;;;;6063460;23;20361;-49
2022/05/02 09:02:28;;;;;;;10.85;2.33;;;;;;;;;;6063276;23;20050;-50
2022/05/02 09:05:17;;;;;;;10.38;2.72;;;;;;;;;;6062599;23;20093;-52
2022/05/02 09:08:11;;;;;;;6.30;1.65;;;;;;;;;;6063042;23;20065;-51
2022/05/02 09:10:52;;;;;;;8.20;2.00;;;;;;;;;;6038765;23;20406;-52
2022/05/02 09:13:44;;;;;;;7.13;1.90;;;;;;;;;;6063571;23;20027;-51
2022/05/02 09:16:43;;;;;;;6.30;1.63;;;;;;;;;;6064050;23;20488;-51
2022/05/02 09:19:31;;;;;;;4.28;1.60;;;;;;;;;;6062803;23;20039;-49
2022/05/02 09:22:25;;;;;;;6.53;1.92;;;;;;;;;;6063204;23;20026;-56
2022/05/02 09:25:07;;;;;;;6.95;1.60;;;;;;;;;;6062683;23;20434;-58
2022/05/02 09:27:35;;;;;;;5.18;1.70;;;;;;;;;;6062667;23;20488;-57
2022/05/02 09:30:21;;;;;;;4.18;1.65;;;;;;;;;;6062304;23;20101;-57
2022/05/02 09:32:47;;;;;;;6.47;1.55;;;;;;;;;;6038064;23;20054;-56
2022/05/02 09:35:33;;;;;;;6.40;1.80;;;;;;;;;;6063493;23;20095;-56
2022/05/02 09:38:20;;;;;;;4.80;1.42;;;;;;;;;;6062217;23;20059;-54
2022/05/02 09:40:58;;;;;;;6.90;1.70;;;;;;;;;;6062837;23;20412;-51
2022/05/02 09:49:33;;;;;;;11.65;2.45;;;;;;;;;;6063398;23;20026;-50
2022/05/02 09:49:37;;;;;;;3.78;1.55;;;;;;;;;;6063317;23;20065;-53
2022/05/02 09:52:12;;;;;;;8.15;1.42;;;;;;;;;;6062205;23;20544;-49
2022/05/02 09:56:38;;;;;;;3.63;1.20;;;;;;;;;;6063005;23;20144;-46
2022/05/02 09:58:00;;;;;;;3.60;1.80;;;;;;;;;;6062570;23;20093;-58
2022/05/02 10:03:33;;;;;;;5.85;1.38;;;;;;;;;;6062593;23;20019;-59
2022/05/02 10:06:04;;;;;;;5.97;1.48;;;;;;;;;;6062811;23;20058;-56
2022/05/02 10:08:40;;;;;;;4.47;1.45;;;;;;;;;;6062916;23;20401;-58
2022/05/02 10:11:12;;;;;;;18.60;1.98;;;;;;;;;;6064851;23;20133;-58
2022/05/02 10:14:04;;;;;;;5.40;1.27;;;;;;;;;;6065222;23;20102;-57
2022/05/02 10:16:42;;;;;;;5.10;1.42;;;;;;;;;;6065313;23;20062;-50
2022/05/02 10:19:27;;;;;;;3.22;1.20;;;;;;;;;;6065155;23;20057;-47
2022/05/02 10:21:54;;;;;;;;;;;;;;;;;;6065108;23;20495;-50
2022/05/02 10:24:33;;;;;;;7.68;1.50;;;;;;;;;;6065124;23;19924;-48
2022/05/02 10:27:15;;;;;;;5.72;1.75;;;;;;;;;;6064590;23;20102;-49
2022/05/02 10:29:47;;;;;;;5.57;1.30;;;;;;;;;;6064696;23;20054;-44
2022/05/02 10:32:23;;;;;;;5.68;1.38;;;;;;;;;;6063963;23;20029;-52
2022/05/02 10:34:59;;;;;;;3.13;1.30;;;;;;;;;;6064423;23;20110;-53
2022/05/02 10:37:31;;;;;;;4.72;1.25;;;;;;;;;;6063441;23;20023;-47
2022/05/02 10:40:10;;;;;;;4.30;1.38;;;;;;;;;;6064057;23;20023;-53
2022/05/02 10:42:42;;;;;;;7.95;1.52;;;;;;;;;;6064763;23;20030;-51
2022/05/02 10:45:16;;;;;;;6.28;1.88;;;;;;;;;;6063564;23;20476;-50
2022/05/02 10:47:55;;;;;;;5.13;1.10;;;;;;;;;;6064016;23;20457;-51
2022/05/02 10:50:32;;;;;;;3.92;1.20;;;;;;;;;;6064556;23;20251;-53
2022/05/02 10:53:13;;;;;;;3.58;1.20;;;;;;;;;;6063668;23;20074;-58
2022/05/02 10:55:50;;;;;;;4.35;1.30;;;;;;;;;;6063832;23;20058;-57
2022/05/02 10:58:17;;;;;;;2.35;1.15;;;;;;;;;;6064846;23;20022;-58
2022/05/02 11:00:56;;;;;;;3.65;1.27;;;;;;;;;;6064781;23;20026;-59
2022/05/02 11:03:29;;;;;;;3.92;1.30;;;;;;;;;;6063970;23;20488;-59
2022/05/02 11:06:09;;;;;;;4.05;1.42;;;;;;;;;;6062909;23;20414;-57
2022/05/02 11:08:49;;;;;;;8.15;1.40;;;;;;;;;;6064053;23;20587;-51
2022/05/02 11:11:25;;;;;;;5.30;1.48;;;;;;;;;;6064261;23;20491;-48
2022/05/02 11:14:07;;;;;;;7.80;1.30;;;;;;;;;;6063398;23;20097;-47
2022/05/02 11:16:59;;;;;;;2.55;1.27;;;;;;;;;;6064729;23;20050;-46
2022/05/02 11:22:43;;;;;;;7.63;1.60;;;;;;;;;;6064446;23;20069;-49
2022/05/02 11:25:20;;;;;;;3.45;1.42;;;;;;;;;;6063723;23;20068;-46
2022/05/02 11:28:05;;;;;;;3.97;1.50;;;;;;;;;;6064429;23;20066;-58
2022/05/02 11:30:55;;;;;;;4.75;1.75;;;;;;;;;;6064412;23;20058;-59
2022/05/02 11:33:22;;;;;;;5.57;1.80;;;;;;;;;;6064365;23;20361;-59
2022/05/02 11:36:00;;;;;;;4.05;1.73;;;;;;;;;;6063124;23;20089;-55
2022/05/02 11:38:45;;;;;;;4.03;1.58;;;;;;;;;;6064035;23;20102;-59
2022/05/02 11:41:21;;;;;;;3.80;1.73;;;;;;;;;;6064409;23;20078;-58
2022/05/02 11:43:48;;;;;;;4.05;1.63;;;;;;;;;;6063950;23;20022;-47
2022/05/02 11:46:18;;;;;;;5.95;1.45;;;;;;;;;;6063965;23;20050;-50
2022/05/02 11:48:59;;;;;;;3.05;1.67;;;;;;;;;;6064204;23;20102;-50
2022/05/02 11:51:47;;;;;;;6.03;2.08;;;;;;;;;;6063846;23;20023;-50
2022/05/02 11:54:32;;;;;;;6.82;1.88;;;;;;;;;;6063154;23;20082;-50
2022/05/02 11:56:59;;;;;;;4.30;1.90;;;;;;;;;;6064116;23;20027;-50
2022/05/02 11:59:51;;;;;;;6.43;2.13;;;;;;;;;;6063453;23;20539;-50
2022/05/02 12:02:38;;;;;;;7.13;2.03;;;;;;;;;;6063921;23;20034;-51
2022/05/02 12:05:17;;;;;;;8.10;2.00;;;;;;;;;;6045900;23;20054;-50
2022/05/02 12:07:51;;;;;;;5.65;1.90;;;;;;;;;;6064376;23;20054;-58
2022/05/02 12:10:32;;;;;;;7.22;2.17;;;;;;;;;;6063218;23;20465;-57
2022/05/02 12:12:59;;;;;;;5.65;1.92;;;;;;;;;;6063092;23;20034;-58
2022/05/02 12:15:25;;;;;;;8.23;2.22;;;;;;;;;;6063356;23;20058;-58
2022/05/02 12:18:07;;;;;;;6.13;1.90;;;;;;;;;;6064173;23;20097;-58
2022/05/02 12:20:35;;;;;;;9.18;2.20;;;;;;;;;;6063428;23;20081;-51
2022/05/02 12:23:16;;;;;;;10.80;2.85;;;;;;;;;;6063409;23;20408;-52
2022/05/02 12:25:47;;;;;;;8.02;2.85;;;;;;;;;;6062789;23;20027;-57
2022/05/02 12:28:37;;;;;;;9.40;2.47;;;;;;;;;;6063883;23;20069;-57
2022/05/02 12:31:06;;;;;;;7.15;2.30;;;;;;;;;;6063783;23;20090;-55
2022/05/02 12:33:40;;;;;;;7.70;2.63;;;;;;;;;;6062384;23;20023;-57
2022/05/02 12:36:14;;;;;;;6.97;2.47;;;;;;;;;;6063604;23;20054;-57
2022/05/02 12:39:00;;;;;;;9.30;3.03;;;;;;;;;;6062769;23;20460;-55
2022/05/02 12:41:36;;;;;;;8.05;2.28;;;;;;;;;;6063964;23;20061;-58
2022/05/02 12:44:12;;;;;;;7.63;2.42;;;;;;;;;;6062130;23;20090;-53
2022/05/02 12:46:39;;;;;;;4.75;1.90;;;;;;;;;;6063643;23;20061;-51
2022/05/02 12:49:10;;;;;;;8.27;2.47;;;;;;;;;;6063373;23;20026;-51
2022/05/02 12:51:51;;;;;;;5.57;2.08;;;;;;;;;;6062811;23;20041;-47
2022/05/02 12:54:19;;;;;;;8.20;2.20;;;;;;;;;;6062681;23;20066;-54
2022/05/02 13:02:51;;;;;;;5.65;2.40;;;;;;;;;;6063328;23;20057;-56
2022/05/02 13:05:21;;;;;;;9.77;2.60;;;;;;;;;;6062790;23;20066;-56
2022/05/02 13:07:55;;;;;;;5.97;2.47;;;;;;;;;;6062266;23;20030;-57
2022/05/02 13:10:25;;;;;;;8.73;2.35;;;;;;;;;;6062972;23;20496;-55
2022/05/02 13:13:06;;;;;;;8.57;2.90;;;;;;;;;;6062183;23;20023;-56
2022/05/02 13:15:41;;;;;;;8.60;2.10;;;;;;;;;;6062697;23;20030;-56
2022/05/02 13:18:22;;;;;;;11.18;2.17;;;;;;;;;;6064317;23;20063;-54
2022/05/02 13:21:02;;;;;;;9.63;2.65;;;;;;;;;;6063176;23;20057;-51
2022/05/02 13:23:38;;;;;;;10.07;2.50;;;;;;;;;;6062700;23;20460;-51
2022/05/02 13:26:17;;;;;;;8.82;3.10;;;;;;;;;;6062994;23;20026;-54
2022/05/02 13:29:03;;;;;;;9.32;2.40;;;;;;;;;;6063625;23;20038;-49
2022/05/02 13:32:00;;;;;;;10.70;2.50;;;;;;;;;;6062855;23;20062;-50
2022/05/02 13:34:39;;;;;;;11.23;2.58;;;;;;;;;;6062344;23;20098;-54
2022/05/02 13:37:14;;;;;;;10.13;2.72;;;;;;;;;;6063672;23;20019;-51
2022/05/02 13:39:50;;;;;;;7.32;2.60;;;;;;;;;;6063044;23;20030;-48
2022/05/02 13:42:36;;;;;;;11.40;2.70;;;;;;;;;;6061942;23;20508;-50
2022/05/02 13:45:05;;;;;;;15.15;3.05;;;;;;;;;;6063665;23;20027;-47
2022/05/02 13:47:45;;;;;;;10.70;2.65;;;;;;;;;;6064952;23;20476;-50
2022/05/02 13:50:14;;;;;;;9.75;2.70;;;;;;;;;;6065158;23;20433;-51
2022/05/02 13:52:51;;;;;;;7.63;2.60;;;;;;;;;;6063965;23;20548;-54
2022/05/02 13:55:45;;;;;;;11.50;2.90;;;;;;;;;;6064128;23;20037;-52
2022/05/02 13:58:37;;;;;;;11.15;2.92;;;;;;;;;;6065118;23;20102;-58
2022/05/02 14:01:32;;;;;;;9.93;3.20;;;;;;;;;;6064500;23;20070;-57
2022/05/02 14:04:18;;;;;;;8.82;2.80;;;;;;;;;;6055221;23;20481;-58
2022/05/02 14:09:44;;;;;;;10.30;2.72;;;;;;;;;;6064909;23;20646;-58
2022/05/02 14:12:18;;;;;;;10.68;3.28;;;;;;;;;;6063446;23;20047;-58
2022/05/02 14:14:54;;;;;;;8.32;3.33;;;;;;;;;;6064637;23;20065;-52
2022/05/02 14:17:45;;;;;;;12.68;3.38;;;;;;;;;;6069813;23;20033;-53
2022/05/02 14:20:23;;;;;;;11.98;3.47;;;;;;;;;;6065360;23;20023;-54
2022/05/02 14:22:55;;;;;;;9.70;3.20;;;;;;;;;;6063576;23;20033;-50
2022/05/02 14:25:36;;;;;;;14.57;4.00;;;;;;;;;;6064553;23;20065;-53
2022/05/02 14:28:08;;;;;;;12.25;4.03;;;;;;;;;;6064082;23;20050;-51
2022/05/02 14:30:43;;;;;;;10.88;3.70;;;;;;;;;;6065211;23;20033;-56
2022/05/02 14:33:12;;;;;;;13.32;4.07;;;;;;;;;;6063713;23;20058;-58
2022/05/02 14:35:43;;;;;;;10.38;4.28;;;;;;;;;;6064154;23;20058;-58
2022/05/02 14:38:16;;;;;;;12.10;4.32;;;;;;;;;;6063939;23;20058;-58
2022/05/02 14:40:45;;;;;;;12.75;4.10;;;;;;;;;;6064175;23;20050;-57
2022/05/02 14:43:13;;;;;;;13.30;4.15;;;;;;;;;;6063364;23;20061;-58
2022/05/02 14:45:48;;;;;;;13.55;4.25;;;;;;;;;;6063353;23;20054;-57
2022/05/02 14:48:15;;;;;;;12.20;4.78;;;;;;;;;;6064335;23;20033;-57
2022/05/02 14:50:48;;;;;;;12.65;5.15;;;;;;;;;;6062179;23;20054;-52
2022/05/02 14:53:22;;;;;;;17.27;4.57;;;;;;;;;;6063610;23;20058;-55
2022/05/02 14:55:52;;;;;;;14.80;5.33;;;;;;;;;;6063671;23;20034;-55
2022/05/02 14:58:20;;;;;;;12.77;4.75;;;;;;;;;;6064753;23;20022;-54
2022/05/02 15:00:56;;;;;;;13.35;5.15;;;;;;;;;;6063404;23;20050;-55
2022/05/02 15:03:27;;;;;;;13.45;5.97;;;;;;;;;;6063568;23;20419;-56
2022/05/02 15:06:03;;;;;;;11.85;5.50;;;;;;;;;;6064151;23;20023;-55
2022/05/02 15:08:30;;;;;;;15.10;5.95;;;;;;;;;;6064203;23;20487;-50
2022/05/02 15:10:59;;;;;;;14.40;6.25;;;;;;;;;;6063501;23;20810;-49
2022/05/02 15:13:33;;;;;;;12.38;5.80;;;;;;;;;;6063841;23;20069;-47
2022/05/02 15:16:24;;;;;;;11.85;5.60;;;;;;;;;;6063915;23;20023;-51
2022/05/02 15:22:06;;;;;;;15.95;5.95;;;;;;;;;;6064063;23;20050;-48
2022/05/02 15:25:04;;;;;;;9.65;5.20;;;;;;;;;;6063113;23;20046;-47
2022/05/02 15:38:53;;;;;;;12.05;5.80;;;;;;;;;;6063189;23;20535;-57
2022/05/02 15:41:42;;;;;;;11.80;5.10;;;;;;;;;;6063377;23;20101;-56
2022/05/02 15:44:09;;;;;;;10.00;5.20;;;;;;;;;;6064286;23;20093;-56
2022/05/02 15:46:43;;;;;;;17.30;5.82;;;;;;;;;;6062207;23;20078;-55
2022/05/02 15:49:11;;;;;;;13.10;6.00;;;;;;;;;;6059480;23;20460;-54
2022/05/02 15:51:45;;;;;;;10.80;5.80;;;;;;;;;;6061038;23;20023;-54
2022/05/02 15:54:22;;;;;;;13.55;5.75;;;;;;;;;;6059102;23;20023;-56
2022/05/02 15:56:58;;;;;;;16.00;5.93;;;;;;;;;;6061047;23;20072;-56
2022/05/02 15:59:35;;;;;;;13.38;5.72;;;;;;;;;;6059815;23;20041;-56
2022/05/02 16:02:02;;;;;;;12.63;5.50;;;;;;;;;;6059762;23;20065;-56
2022/05/02 16:04:31;;;;;;;11.82;5.25;;;;;;;;;;6061012;23;20027;-46
2022/05/02 16:12:55;;;;;;;12.55;5.22;;;;;;;;;;6059359;23;20053;-47
2022/05/02 16:15:24;;;;;;;11.23;6.10;;;;;;;;;;6059134;23;20058;-47
2022/05/02 16:17:52;;;;;;;13.95;5.30;;;;;;;;;;6060612;23;20026;-46
2022/05/02 16:20:26;;;;;;;10.32;4.93;;;;;;;;;;6060645;23;20037;-56
2022/05/02 16:22:54;;;;;;;13.13;5.57;;;;;;;;;;6060138;23;20409;-48
2022/05/02 16:25:28;;;;;;;11.55;4.97;;;;;;;;;;6060435;23;20061;-55
2022/05/02 16:28:12;;;;;;;14.60;5.60;;;;;;;;;;6056464;23;20133;-56
2022/05/02 16:30:38;;;;;;;12.05;5.30;;;;;;;;;;6057223;23;20027;-55
2022/05/02 16:33:23;;;;;;;12.50;5.88;;;;;;;;;;6059835;23;20536;-53
2022/05/02 16:35:50;;;;;;;13.85;5.18;;;;;;;;;;6059308;23;20062;-57
2022/05/02 16:38:37;;;;;;;13.75;5.45;;;;;;;;;;6060413;23;20054;-51
2022/05/02 16:41:25;;;;;;;11.07;4.88;;;;;;;;;;6059089;23;20050;-50
2022/05/02 16:44:01;;;;;;;13.32;5.20;;;;;;;;;;6058813;23;20073;-44
2022/05/02 16:46:28;;;;;;;14.93;5.15;;;;;;;;;;6060252;23;20069;-50
2022/05/02 16:49:03;;;;;;;14.30;5.18;;;;;;;;;;6055827;23;20029;-49
2022/05/02 16:51:37;;;;;;;18.70;5.25;;;;;;;;;;5965849;23;20136;-48
2022/05/02 16:54:03;;;;;;;12.00;5.03;;;;;;;;;;5958412;23;20057;-47
2022/05/02 16:56:30;;;;;;;13.85;5.68;;;;;;;;;;5968135;23;20251;-45
2022/05/02 16:59:04;;;;;;;17.17;5.30;;;;;;;;;;5974057;24;20028;-55
2022/05/02 17:01:31;;;;;;;11.48;5.07;;;;;;;;;;5973533;23;20031;-56
2022/05/02 17:03:59;;;;;;;10.53;4.57;;;;;;;;;;5973637;23;20028;-56
2022/05/02 17:06:32;;;;;;;13.13;4.50;;;;;;;;;;5962766;23;20095;-57
2022/05/02 17:09:08;;;;;;;11.75;4.60;;;;;;;;;;5973791;23;20055;-56
2022/05/02 17:11:42;;;;;;;9.65;4.63;;;;;;;;;;5970867;23;20546;-56
2022/05/02 17:14:16;;;;;;;13.70;4.85;;;;;;;;;;5993888;23;20458;-62
2022/05/02 17:16:50;;;;;;;10.10;4.53;;;;;;;;;;6047302;23;20110;-58
2022/05/02 17:19:19;;;;;;;13.50;4.68;;;;;;;;;;6057468;23;20023;-58
2022/05/02 17:22:06;;;;;;;11.68;4.30;;;;;;;;;;6057225;23;20504;-58
2022/05/02 17:27:22;;;;;;;15.45;4.45;;;;;;;;;;6021454;23;20207;-69
2022/05/02 17:30:10;;;;;;;9.45;4.55;;;;;;;;;;6080319;23;20022;-69
2022/05/02 17:32:44;;;;;;;13.57;4.85;;;;;;;;;;6077114;23;20588;-69
2022/05/02 17:35:18;;;;;;;9.68;4.43;;;;;;;;;;6085753;23;20026;-69
2022/05/02 17:37:54;;;;;;;15.93;5.38;;;;;;;;;;6086166;23;20075;-70
2022/05/02 17:40:38;;;;;;;12.00;4.90;;;;;;;;;;6085929;23;20045;-67
2022/05/02 17:43:19;;;;;;;13.55;4.60;;;;;;;;;;6085692;23;20038;-53
2022/05/02 17:45:54;;;;;;;15.98;4.85;;;;;;;;;;6062473;23;20530;-49
2022/05/02 17:48:25;;;;;;;12.88;5.18;;;;;;;;;;6084617;23;20112;-67
2022/05/02 17:50:51;;;;;;;12.13;4.30;;;;;;;;;;6086210;23;20045;-66
2022/05/02 17:53:28;;;;;;;10.75;4.93;;;;;;;;;;6084301;23;20037;-66
2022/05/02 17:55:55;;;;;;;15.27;4.65;;;;;;;;;;6086774;23;20062;-66
2022/05/02 17:58:25;;;;;;;14.13;4.88;;;;;;;;;;6086975;23;20050;-67
2022/05/02 18:01:06;;;;;;;7.30;4.60;;;;;;;;;;6086674;23;20053;-67
2022/05/02 18:03:38;;;;;;;9.93;4.72;;;;;;;;;;6085541;23;20030;-60
2022/05/02 18:06:20;;;;;;;11.60;5.07;;;;;;;;;;6086078;23;21022;-48
2022/05/02 18:08:47;;;;;;;16.35;5.20;;;;;;;;;;6069919;23;20061;-49
2022/05/02 18:14:17;;;;;;;13.23;5.40;;;;;;;;;;6085739;23;20033;-47
2022/05/02 18:16:57;;;;;;;15.00;5.95;;;;;;;;;;6086070;23;20026;-49
2022/05/02 18:19:24;;;;;;;9.43;5.35;;;;;;;;;;6087045;23;20077;-46
2022/05/02 18:22:04;;;;;;;13.18;5.55;;;;;;;;;;6086300;23;20037;-49
2022/05/02 18:24:38;;;;;;;12.20;5.80;;;;;;;;;;6087208;23;20494;-47
2022/05/02 18:27:25;;;;;;;12.88;6.40;;;;;;;;;;6085536;23;20062;-50
2022/05/02 18:30:00;;;;;;;12.80;6.47;;;;;;;;;;6087490;23;20062;-48
2022/05/02 18:32:41;;;;;;;13.30;6.65;;;;;;;;;;6087932;23;20030;-51
2022/05/02 18:38:09;;;;;;;19.60;6.95;;;;;;;;;;6089125;23;20085;-47
2022/05/02 18:40:37;;;;;;;16.10;7.53;;;;;;;;;;6088323;23;20057;-51
2022/05/02 18:43:12;;;;;;;13.43;7.20;;;;;;;;;;6085003;23;20069;-53
2022/05/02 18:54:38;;;;;;;20.52;7.93;;;;;;;;;;6087560;23;20066;-53
2022/05/02 18:57:12;;;;;;;16.25;8.50;;;;;;;;;;6088238;23;20062;-55
2022/05/02 18:59:47;;;;;;;16.30;8.32;;;;;;;;;;6059283;23;20070;-53
2022/05/02 19:02:17;;;;;;;21.48;8.40;;;;;;;;;;6087635;23;20105;-53
2022/05/02 19:04:44;;;;;;;17.38;9.02;;;;;;;;;;6086063;23;20026;-56
2022/05/02 19:07:19;;;;;;;19.88;8.10;;;;;;;;;;6059424;23;20035;-56
2022/05/02 19:09:46;;;;;;;21.00;8.13;;;;;;;;;;6058599;23;20022;-57
2022/05/02 19:12:14;;;;;;;16.02;7.53;;;;;;;;;;6034410;23;20034;-53
2022/05/02 19:14:49;;;;;;;16.70;8.45;;;;;;;;;;6059112;23;20094;-55
2022/05/02 19:17:17;;;;;;;19.20;8.75;;;;;;;;;;6059085;23;20058;-52
2022/05/02 19:19:44;;;;;;;15.70;7.97;;;;;;;;;;6059571;23;20023;-48
2022/05/02 19:22:26;;;;;;;19.23;8.32;;;;;;;;;;6059875;23;20687;-67